Terminal Aerodrome Forecast
Issued by NWS

Home | Current Version | Previous Version | Graphics & Text | Print | Product List | Glossary On
Versions: 1 2 3 4 5 6 7 8 9 10 11 12 13 14 15 16 17 18 19
000
FTUS43 KMPX 272300
TAFRWF
TAF
KRWF 272338Z 2800/2824 17011KT P6SM SCT060 SCT250
     FM280200 16006KT P6SM FEW060
     FM281500 18008KT P6SM FEW050 SCT250=

USA.gov is the U.S. government's official web portal to all federal, state and local government web resources and services.